CYWH

Victoria Harbour Seaplane Base

Victoria, British Columbia, Canada
TAF CYWH 231738Z 2318/2404 02010KT P6SM SCT220 BECMG 2400/2402 VRB03KT RMK NXT FCST BY 240000Z
Issued Valid From Valid To
Apr-23 @ 17:38 UTC
(5 hours ago)
Apr-23 @ 18:00 UTC
(5 hours ago)
Apr-24 @ 04:00 UTC
(in 5 hours)
Apr-23 @ 18:00 to Apr-24 @ 00:00
TAF CYWH 231738Z 2318/2404 02010KT P6SM SCT220
Wind Visibility Clouds
20° at 10 knots Greater than 6 miles
  • Scattered at 22,000' AGL
Becoming Apr-24 @ 00:00 to Apr-24 @ 04:00
BECMG 2400/2402 VRB03KT RMK NXT FCST BY 240000Z
Wind Visibility Clouds
Variable at 3 knots Greater than 6 miles
  • Scattered at 22,000' AGL
TAF CYWH 231738Z 2318/2404 02010KT P6SM SCT220 BECMG 2400/2402 VRB03KT RMK NXT FCST BY 240000Z
Issued Apr-23 @ 17:38 UTC
(5 hours ago)
Valid From Apr-23 @ 18:00 UTC
(5 hours ago)
Valid To Apr-24 @ 04:00 UTC
(in 5 hours)
Apr-23 @ 18:00 - Apr-24 @ 00:00
Wind Visibility
20° at 10 knots Greater than 6 miles
Clouds
  • Scattered at 22,000' AGL
Becoming Apr-24 @ 00:00 - Apr-24 @ 04:00
Wind Visibility
Variable at 3 knots Greater than 6 miles
Clouds
  • Scattered at 22,000' AGL